sensor_id;sensor_type;location;lat;lon;timestamp;pressure;altitude;pressure_sealevel;temperature;humidity
19594;BME280;9944;48.240;16.478;2023-04-15T00:02:30;98391.25;;;3.34;86.27
19594;BME280;9944;48.240;16.478;2023-04-15T00:06:35;98379.94;;;3.33;86.61
19594;BME280;9944;48.240;16.478;2023-04-15T00:10:40;98375.59;;;3.34;86.49
19594;BME280;9944;48.240;16.478;2023-04-15T00:14:44;98375.59;;;3.34;86.31
19594;BME280;9944;48.240;16.478;2023-04-15T00:18:47;98389.50;;;3.33;86.48
19594;BME280;9944;48.240;16.478;2023-04-15T00:22:50;98393.00;;;3.35;86.59
19594;BME280;9944;48.240;16.478;2023-04-15T00:26:55;98394.72;;;3.36;86.47
19594;BME280;9944;48.240;16.478;2023-04-15T00:30:58;98395.59;;;3.38;86.67
19594;BME280;9944;48.240;16.478;2023-04-15T00:35:02;98401.66;;;3.40;86.57
19594;BME280;9944;48.240;16.478;2023-04-15T00:39:05;98410.38;;;3.39;86.53
19594;BME280;9944;48.240;16.478;2023-04-15T00:43:09;98410.38;;;3.39;86.73
19594;BME280;9944;48.240;16.478;2023-04-15T00:47:14;98409.50;;;3.40;86.80
19594;BME280;9944;48.240;16.478;2023-04-15T00:51:18;98410.41;;;3.42;86.77
19594;BME280;9944;48.240;16.478;2023-04-15T00:55:21;98415.63;;;3.42;86.91
19594;BME280;9944;48.240;16.478;2023-04-15T00:59:26;98422.56;;;3.43;87.15
19594;BME280;9944;48.240;16.478;2023-04-15T01:03:29;98412.13;;;3.43;87.16
19594;BME280;9944;48.240;16.478;2023-04-15T01:07:33;98413.88;;;3.44;87.19
19594;BME280;9944;48.240;16.478;2023-04-15T01:11:36;98426.91;;;3.42;87.16
19594;BME280;9944;48.240;16.478;2023-04-15T01:15:43;98431.28;;;3.43;87.46
19594;BME280;9944;48.240;16.478;2023-04-15T01:19:47;98427.78;;;3.43;87.29
19594;BME280;9944;48.240;16.478;2023-04-15T01:23:51;98437.34;;;3.44;87.66
19594;BME280;9944;48.240;16.478;2023-04-15T01:27:57;98433.88;;;3.46;87.81
19594;BME280;9944;48.240;16.478;2023-04-15T01:32:01;98440.84;;;3.49;87.67
19594;BME280;9944;48.240;16.478;2023-04-15T01:36:06;98444.31;;;3.50;88.01
19594;BME280;9944;48.240;16.478;2023-04-15T01:40:11;98438.25;;;3.51;87.91
19594;BME280;9944;48.240;16.478;2023-04-15T01:44:15;98446.94;;;3.51;87.75
19594;BME280;9944;48.240;16.478;2023-04-15T01:48:19;98453.00;;;3.52;87.92
19594;BME280;9944;48.240;16.478;2023-04-15T01:52:22;98453.91;;;3.52;88.11
19594;BME280;9944;48.240;16.478;2023-04-15T01:56:25;98452.16;;;3.54;87.95
19594;BME280;9944;48.240;16.478;2023-04-15T02:00:29;98450.44;;;3.56;88.15
19594;BME280;9944;48.240;16.478;2023-04-15T02:04:33;98453.91;;;3.58;88.21
19594;BME280;9944;48.240;16.478;2023-04-15T02:08:36;98459.13;;;3.61;88.31
19594;BME280;9944;48.240;16.478;2023-04-15T02:12:41;98460.88;;;3.64;88.19
19594;BME280;9944;48.240;16.478;2023-04-15T02:16:46;98464.38;;;3.64;88.43
19594;BME280;9944;48.240;16.478;2023-04-15T02:20:50;98462.66;;;3.70;88.43
19594;BME280;9944;48.240;16.478;2023-04-15T02:24:54;98464.38;;;3.74;88.74
19594;BME280;9944;48.240;16.478;2023-04-15T02:28:57;98467.00;;;3.81;88.73
19594;BME280;9944;48.240;16.478;2023-04-15T02:33:02;98459.16;;;3.84;88.92
19594;BME280;9944;48.240;16.478;2023-04-15T02:37:05;98470.50;;;3.91;89.06
19594;BME280;9944;48.240;16.478;2023-04-15T02:41:10;98474.88;;;3.97;89.04
19594;BME280;9944;48.240;16.478;2023-04-15T02:45:13;98481.00;;;3.96;88.82
19594;BME280;9944;48.240;16.478;2023-04-15T02:49:19;98476.59;;;3.93;88.52
19594;BME280;9944;48.240;16.478;2023-04-15T02:53:22;98478.34;;;3.93;88.59
19594;BME280;9944;48.240;16.478;2023-04-15T02:57:27;98474.88;;;3.94;88.69
19594;BME280;9944;48.240;16.478;2023-04-15T03:01:34;98476.59;;;3.95;88.53
19594;BME280;9944;48.240;16.478;2023-04-15T03:05:39;98478.34;;;3.94;88.36
19594;BME280;9944;48.240;16.478;2023-04-15T03:09:42;98480.09;;;3.94;88.03
19594;BME280;9944;48.240;16.478;2023-04-15T03:13:46;98487.06;;;3.96;88.31
19594;BME280;9944;48.240;16.478;2023-04-15T03:18:09;98486.19;;;4.00;88.33
19594;BME280;9944;48.240;16.478;2023-04-15T03:22:15;98480.97;;;4.02;88.18
19594;BME280;9944;48.240;16.478;2023-04-15T03:26:26;98476.66;;;4.02;88.39
19594;BME280;9944;48.240;16.478;2023-04-15T03:30:34;98485.38;;;4.08;88.49
19594;BME280;9944;48.240;16.478;2023-04-15T03:34:37;98488.84;;;4.13;88.83
19594;BME280;9944;48.240;16.478;2023-04-15T03:38:41;98483.63;;;4.13;88.77
19594;BME280;9944;48.240;16.478;2023-04-15T03:42:45;98489.72;;;4.13;88.62
19594;BME280;9944;48.240;16.478;2023-04-15T03:46:48;98493.19;;;4.17;88.77
19594;BME280;9944;48.240;16.478;2023-04-15T03:50:51;98495.81;;;4.17;88.70
19594;BME280;9944;48.240;16.478;2023-04-15T03:54:56;98495.81;;;4.18;88.74
19594;BME280;9944;48.240;16.478;2023-04-15T03:58:59;98505.38;;;4.19;89.04
19594;BME280;9944;48.240;16.478;2023-04-15T04:03:03;98503.63;;;4.23;89.02
19594;BME280;9944;48.240;16.478;2023-04-15T04:07:06;98513.22;;;4.27;89.24
19594;BME280;9944;48.240;16.478;2023-04-15T04:11:11;98511.50;;;4.35;89.63
19594;BME280;9944;48.240;16.478;2023-04-15T04:15:14;98508.88;;;4.43;89.32
19594;BME280;9944;48.240;16.478;2023-04-15T04:19:17;98522.81;;;4.50;89.64
19594;BME280;9944;48.240;16.478;2023-04-15T04:23:21;98521.94;;;4.57;89.75
19594;BME280;9944;48.240;16.478;2023-04-15T04:27:25;98528.03;;;4.59;89.80
19594;BME280;9944;48.240;16.478;2023-04-15T04:31:28;98530.66;;;4.62;89.30
19594;BME280;9944;48.240;16.478;2023-04-15T04:35:31;98531.53;;;4.67;89.58
19594;BME280;9944;48.240;16.478;2023-04-15T04:39:38;98537.63;;;4.72;89.40
19594;BME280;9944;48.240;16.478;2023-04-15T04:43:42;98541.97;;;4.75;89.26
19594;BME280;9944;48.240;16.478;2023-04-15T04:47:45;98541.97;;;4.73;89.26
19594;BME280;9944;48.240;16.478;2023-04-15T04:51:49;98543.72;;;4.76;89.05
19594;BME280;9944;48.240;16.478;2023-04-15T04:55:53;98546.34;;;4.81;89.33
19594;BME280;9944;48.240;16.478;2023-04-15T04:59:57;98550.69;;;4.82;89.28
19594;BME280;9944;48.240;16.478;2023-04-15T05:04:00;98553.28;;;4.82;88.87
19594;BME280;9944;48.240;16.478;2023-04-15T05:08:06;98555.03;;;4.83;89.13
19594;BME280;9944;48.240;16.478;2023-04-15T05:12:09;98556.78;;;4.90;89.20
19594;BME280;9944;48.240;16.478;2023-04-15T05:16:17;98553.28;;;4.92;88.98
19594;BME280;9944;48.240;16.478;2023-04-15T05:20:20;98558.50;;;4.94;88.97
19594;BME280;9944;48.240;16.478;2023-04-15T05:24:23;98559.38;;;4.96;88.78
19594;BME280;9944;48.240;16.478;2023-04-15T05:28:26;98563.72;;;4.97;88.80
19594;BME280;9944;48.240;16.478;2023-04-15T05:32:31;98570.72;;;5.00;88.61
19594;BME280;9944;48.240;16.478;2023-04-15T05:36:34;98570.69;;;5.01;88.66
19594;BME280;9944;48.240;16.478;2023-04-15T05:40:37;98578.53;;;5.01;88.63
19594;BME280;9944;48.240;16.478;2023-04-15T05:44:40;98582.03;;;5.05;88.68
19594;BME280;9944;48.240;16.478;2023-04-15T05:48:44;98572.41;;;5.11;88.95
19594;BME280;9944;48.240;16.478;2023-04-15T05:52:48;98582.91;;;5.19;89.00
19594;BME280;9944;48.240;16.478;2023-04-15T05:56:51;98588.09;;;5.27;89.01
19594;BME280;9944;48.240;16.478;2023-04-15T06:00:54;98590.72;;;5.33;88.77
19594;BME280;9944;48.240;16.478;2023-04-15T06:04:59;98592.44;;;5.40;89.02
19594;BME280;9944;48.240;16.478;2023-04-15T06:09:03;98592.41;;;5.46;88.97
19594;BME280;9944;48.240;16.478;2023-04-15T06:13:06;98593.25;;;5.58;89.02
19594;BME280;9944;48.240;16.478;2023-04-15T06:17:09;98599.34;;;5.66;89.07
19594;BME280;9944;48.240;16.478;2023-04-15T06:21:16;98598.44;;;5.73;89.10
19594;BME280;9944;48.240;16.478;2023-04-15T06:25:20;98594.91;;;5.83;89.06
19594;BME280;9944;48.240;16.478;2023-04-15T06:29:23;98601.81;;;5.97;88.71
19594;BME280;9944;48.240;16.478;2023-04-15T06:33:27;98598.31;;;6.01;88.04
19594;BME280;9944;48.240;16.478;2023-04-15T06:37:31;98600.94;;;6.04;87.84
19594;BME280;9944;48.240;16.478;2023-04-15T06:41:35;98600.06;;;6.02;87.58
19594;BME280;9944;48.240;16.478;2023-04-15T06:45:38;98606.19;;;6.04;87.56
19594;BME280;9944;48.240;16.478;2023-04-15T06:49:41;98610.50;;;6.08;87.22
19594;BME280;9944;48.240;16.478;2023-04-15T06:53:46;98606.13;;;6.11;87.15
19594;BME280;9944;48.240;16.478;2023-04-15T06:57:50;98612.22;;;6.14;86.88
19594;BME280;9944;48.240;16.478;2023-04-15T07:01:53;98615.69;;;6.20;86.98
19594;BME280;9944;48.240;16.478;2023-04-15T07:05:56;98622.66;;;6.24;86.88
19594;BME280;9944;48.240;16.478;2023-04-15T07:10:00;98626.16;;;6.26;86.69
19594;BME280;9944;48.240;16.478;2023-04-15T07:14:04;98624.34;;;6.35;86.99
19594;BME280;9944;48.240;16.478;2023-04-15T07:18:07;98624.31;;;6.38;86.50
19594;BME280;9944;48.240;16.478;2023-04-15T07:22:10;98623.47;;;6.39;86.26
19594;BME280;9944;48.240;16.478;2023-04-15T07:26:14;98633.06;;;6.46;86.13
19594;BME280;9944;48.240;16.478;2023-04-15T07:30:18;98640.91;;;6.51;85.72
19594;BME280;9944;48.240;16.478;2023-04-15T07:34:21;98642.59;;;6.58;85.89
19594;BME280;9944;48.240;16.478;2023-04-15T07:38:24;98639.06;;;6.60;85.08
19594;BME280;9944;48.240;16.478;2023-04-15T07:42:29;98643.44;;;6.61;84.22
19594;BME280;9944;48.240;16.478;2023-04-15T07:46:32;98647.78;;;6.69;84.51
19594;BME280;9944;48.240;16.478;2023-04-15T07:50:35;98645.97;;;6.75;83.86
19594;BME280;9944;48.240;16.478;2023-04-15T07:54:38;98657.25;;;6.85;84.18
19594;BME280;9944;48.240;16.478;2023-04-15T07:58:43;98652.81;;;6.96;83.71
19594;BME280;9944;48.240;16.478;2023-04-15T08:02:46;98649.19;;;7.11;84.21
19594;BME280;9944;48.240;16.478;2023-04-15T08:06:50;98655.22;;;7.24;84.47
19594;BME280;9944;48.240;16.478;2023-04-15T08:10:54;98663.00;;;7.32;83.91
19594;BME280;9944;48.240;16.478;2023-04-15T08:14:59;98662.03;;;7.43;83.87
19594;BME280;9944;48.240;16.478;2023-04-15T08:19:02;98662.00;;;7.48;82.99
19594;BME280;9944;48.240;16.478;2023-04-15T08:23:06;98657.59;;;7.50;82.07
19594;BME280;9944;48.240;16.478;2023-04-15T08:27:09;98663.72;;;7.51;81.61
19594;BME280;9944;48.240;16.478;2023-04-15T08:31:15;98662.00;;;7.47;80.88
19594;BME280;9944;48.240;16.478;2023-04-15T08:35:18;98666.34;;;7.49;80.75
19594;BME280;9944;48.240;16.478;2023-04-15T08:39:21;98669.81;;;7.53;79.67
19594;BME280;9944;48.240;16.478;2023-04-15T08:43:26;98681.13;;;7.58;79.76
19594;BME280;9944;48.240;16.478;2023-04-15T08:47:33;98686.38;;;7.61;79.23
19594;BME280;9944;48.240;16.478;2023-04-15T08:51:39;98691.53;;;7.70;79.51
19594;BME280;9944;48.240;16.478;2023-04-15T08:55:43;98692.34;;;7.77;78.63
19594;BME280;9944;48.240;16.478;2023-04-15T08:59:48;98696.63;;;7.86;79.62
19594;BME280;9944;48.240;16.478;2023-04-15T09:03:53;98707.09;;;7.89;79.14
19594;BME280;9944;48.240;16.478;2023-04-15T09:07:56;98698.28;;;7.93;79.24
19594;BME280;9944;48.240;16.478;2023-04-15T09:12:00;98707.94;;;7.94;79.52
19594;BME280;9944;48.240;16.478;2023-04-15T09:16:04;98715.81;;;7.94;79.53
19594;BME280;9944;48.240;16.478;2023-04-15T09:20:12;98713.19;;;7.94;79.72
19594;BME280;9944;48.240;16.478;2023-04-15T09:24:16;98715.81;;;7.94;79.49
19594;BME280;9944;48.240;16.478;2023-04-15T09:28:23;98719.38;;;7.90;78.98
19594;BME280;9944;48.240;16.478;2023-04-15T09:32:27;98722.94;;;7.83;78.63
19594;BME280;9944;48.240;16.478;2023-04-15T09:36:39;98727.31;;;7.82;78.57
19594;BME280;9944;48.240;16.478;2023-04-15T09:40:53;98730.84;;;7.83;78.64
19594;BME280;9944;48.240;16.478;2023-04-15T09:45:07;98734.31;;;7.83;77.70
19594;BME280;9944;48.240;16.478;2023-04-15T09:49:11;98734.31;;;7.85;77.35
19594;BME280;9944;48.240;16.478;2023-04-15T09:53:16;98742.16;;;7.88;77.57
19594;BME280;9944;48.240;16.478;2023-04-15T09:57:20;98740.41;;;7.87;77.39
19594;BME280;9944;48.240;16.478;2023-04-15T10:01:24;98745.66;;;7.87;77.36
19594;BME280;9944;48.240;16.478;2023-04-15T10:05:28;98750.06;;;7.85;77.93
19594;BME280;9944;48.240;16.478;2023-04-15T10:09:34;98757.94;;;7.85;77.97
19594;BME280;9944;48.240;16.478;2023-04-15T10:13:39;98757.94;;;7.88;78.14
19594;BME280;9944;48.240;16.478;2023-04-15T10:17:44;98757.88;;;7.92;78.54
19594;BME280;9944;48.240;16.478;2023-04-15T10:21:48;98763.06;;;8.02;79.30
19594;BME280;9944;48.240;16.478;2023-04-15T10:25:53;98769.16;;;8.05;78.63
19594;BME280;9944;48.240;16.478;2023-04-15T10:29:57;98766.53;;;8.02;77.69
19594;BME280;9944;48.240;16.478;2023-04-15T10:34:02;98772.69;;;7.98;77.46
19594;BME280;9944;48.240;16.478;2023-04-15T10:38:32;98768.34;;;7.97;77.71
19594;BME280;9944;48.240;16.478;2023-04-15T10:42:37;98774.44;;;7.99;77.69
19594;BME280;9944;48.240;16.478;2023-04-15T10:46:42;98777.06;;;7.99;77.63
19594;BME280;9944;48.240;16.478;2023-04-15T10:50:55;98775.31;;;7.98;77.69
19594;BME280;9944;48.240;16.478;2023-04-15T10:55:02;98785.03;;;7.91;77.23
19594;BME280;9944;48.240;16.478;2023-04-15T10:59:08;98788.63;;;7.81;76.76
19594;BME280;9944;48.240;16.478;2023-04-15T11:03:11;98787.88;;;7.65;76.15
19594;BME280;9944;48.240;16.478;2023-04-15T11:07:14;98794.97;;;7.57;76.06
19594;BME280;9944;48.240;16.478;2023-04-15T11:11:17;98795.84;;;7.57;76.25
19594;BME280;9944;48.240;16.478;2023-04-15T11:15:27;98793.22;;;7.56;76.19
19594;BME280;9944;48.240;16.478;2023-04-15T11:19:37;98801.94;;;7.58;76.37
19594;BME280;9944;48.240;16.478;2023-04-15T11:23:42;98797.53;;;7.61;76.53
19594;BME280;9944;48.240;16.478;2023-04-15T11:27:47;98802.78;;;7.65;76.77
19594;BME280;9944;48.240;16.478;2023-04-15T11:31:52;98800.09;;;7.72;77.28
19594;BME280;9944;48.240;16.478;2023-04-15T11:35:56;98806.09;;;7.85;77.17
19594;BME280;9944;48.240;16.478;2023-04-15T11:40:01;98811.34;;;7.88;76.84
19594;BME280;9944;48.240;16.478;2023-04-15T11:44:15;98811.28;;;7.94;77.07
19594;BME280;9944;48.240;16.478;2023-04-15T11:48:21;98813.84;;;8.02;76.87
19594;BME280;9944;48.240;16.478;2023-04-15T11:52:24;98819.03;;;8.08;77.29
19594;BME280;9944;48.240;16.478;2023-04-15T11:56:27;98812.91;;;8.09;77.03
19594;BME280;9944;48.240;16.478;2023-04-15T12:00:31;98821.63;;;8.13;77.14
19594;BME280;9944;48.240;16.478;2023-04-15T12:04:36;98819.00;;;8.11;77.06
19594;BME280;9944;48.240;16.478;2023-04-15T12:08:58;98830.31;;;8.20;77.37
19594;BME280;9944;48.240;16.478;2023-04-15T12:13:05;98826.72;;;8.28;77.71
19594;BME280;9944;48.240;16.478;2023-04-15T12:17:09;98832.00;;;8.31;77.44
19594;BME280;9944;48.240;16.478;2023-04-15T12:21:17;98836.34;;;8.31;77.29
19594;BME280;9944;48.240;16.478;2023-04-15T12:25:33;98828.44;;;8.34;77.31
19594;BME280;9944;48.240;16.478;2023-04-15T12:29:38;98835.44;;;8.38;76.84
19594;BME280;9944;48.240;16.478;2023-04-15T12:33:41;98849.50;;;8.29;75.89
19594;BME280;9944;48.240;16.478;2023-04-15T12:37:46;98842.56;;;8.21;75.44
19594;BME280;9944;48.240;16.478;2023-04-15T12:41:51;98847.00;;;8.15;75.18
19594;BME280;9944;48.240;16.478;2023-04-15T12:45:55;98853.19;;;8.10;74.95
19594;BME280;9944;48.240;16.478;2023-04-15T12:49:58;98849.72;;;8.08;75.30
19594;BME280;9944;48.240;16.478;2023-04-15T12:54:03;98858.53;;;8.02;75.16
19594;BME280;9944;48.240;16.478;2023-04-15T12:58:06;98862.97;;;7.94;74.98
19594;BME280;9944;48.240;16.478;2023-04-15T13:02:10;98862.97;;;7.94;75.15
19594;BME280;9944;48.240;16.478;2023-04-15T13:06:13;98862.94;;;7.97;75.39
19594;BME280;9944;48.240;16.478;2023-04-15T13:10:18;98875.22;;;7.95;74.94
19594;BME280;9944;48.240;16.478;2023-04-15T13:14:22;98874.31;;;7.99;74.97
19594;BME280;9944;48.240;16.478;2023-04-15T13:18:25;98878.69;;;8.00;74.41
19594;BME280;9944;48.240;16.478;2023-04-15T13:22:28;98885.66;;;8.04;74.32
19594;BME280;9944;48.240;16.478;2023-04-15T13:26:32;98889.03;;;8.18;75.17
19594;BME280;9944;48.240;16.478;2023-04-15T13:30:36;98883.66;;;8.31;74.77
19594;BME280;9944;48.240;16.478;2023-04-15T13:34:39;98889.78;;;8.36;74.56
19594;BME280;9944;48.240;16.478;2023-04-15T13:38:42;98885.44;;;8.35;73.87
19594;BME280;9944;48.240;16.478;2023-04-15T13:42:46;98878.41;;;8.31;73.51
19594;BME280;9944;48.240;16.478;2023-04-15T13:46:50;98890.63;;;8.40;73.97
19594;BME280;9944;48.240;16.478;2023-04-15T13:50:53;98890.63;;;8.41;73.50
19594;BME280;9944;48.240;16.478;2023-04-15T13:54:57;98895.88;;;8.41;73.46
19594;BME280;9944;48.240;16.478;2023-04-15T13:59:21;98898.50;;;8.41;72.51
19594;BME280;9944;48.240;16.478;2023-04-15T14:03:24;98903.81;;;8.38;72.40
19594;BME280;9944;48.240;16.478;2023-04-15T14:07:28;98905.56;;;8.38;72.35
19594;BME280;9944;48.240;16.478;2023-04-15T14:11:32;98905.56;;;8.36;72.28
19594;BME280;9944;48.240;16.478;2023-04-15T14:15:37;98907.31;;;8.31;72.05
19594;BME280;9944;48.240;16.478;2023-04-15T14:19:41;98919.63;;;8.29;72.12
19594;BME280;9944;48.240;16.478;2023-04-15T14:23:44;98925.81;;;8.23;71.73
19594;BME280;9944;48.240;16.478;2023-04-15T14:27:47;98924.16;;;8.11;71.89
19594;BME280;9944;48.240;16.478;2023-04-15T14:31:52;98938.19;;;8.10;71.85
19594;BME280;9944;48.240;16.478;2023-04-15T14:36:12;98936.34;;;8.18;72.08
19594;BME280;9944;48.240;16.478;2023-04-15T14:40:15;98952.13;;;8.18;72.21
19594;BME280;9944;48.240;16.478;2023-04-15T14:44:18;98947.72;;;8.21;72.35
19594;BME280;9944;48.240;16.478;2023-04-15T14:48:23;98945.91;;;8.27;72.67
19594;BME280;9944;48.240;16.478;2023-04-15T14:52:26;98943.28;;;8.35;72.16
19594;BME280;9944;48.240;16.478;2023-04-15T14:56:29;98958.13;;;8.42;71.61
19594;BME280;9944;48.240;16.478;2023-04-15T15:00:32;98958.94;;;8.47;71.68
19594;BME280;9944;48.240;16.478;2023-04-15T15:04:37;98961.50;;;8.57;71.71
19594;BME280;9944;48.240;16.478;2023-04-15T15:08:41;98957.06;;;8.60;71.19
19594;BME280;9944;48.240;16.478;2023-04-15T15:12:45;98964.09;;;8.60;71.13
19594;BME280;9944;48.240;16.478;2023-04-15T15:16:48;98978.13;;;8.59;71.01
19594;BME280;9944;48.240;16.478;2023-04-15T15:20:53;98979.91;;;8.57;70.95
19594;BME280;9944;48.240;16.478;2023-04-15T15:24:56;98982.63;;;8.46;70.62
19594;BME280;9944;48.240;16.478;2023-04-15T15:29:00;98984.41;;;8.44;70.57
19594;BME280;9944;48.240;16.478;2023-04-15T15:33:03;98987.03;;;8.42;70.42
19594;BME280;9944;48.240;16.478;2023-04-15T15:37:08;98994.09;;;8.37;70.13
19594;BME280;9944;48.240;16.478;2023-04-15T15:41:11;99002.84;;;8.36;70.51
19594;BME280;9944;48.240;16.478;2023-04-15T15:45:14;99002.00;;;8.29;70.22
19594;BME280;9944;48.240;16.478;2023-04-15T15:49:17;99003.81;;;8.24;70.39
19594;BME280;9944;48.240;16.478;2023-04-15T15:53:22;99006.47;;;8.20;70.73
19594;BME280;9944;48.240;16.478;2023-04-15T15:57:26;99009.09;;;8.18;70.67
19594;BME280;9944;48.240;16.478;2023-04-15T16:01:29;99014.38;;;8.15;70.55
19594;BME280;9944;48.240;16.478;2023-04-15T16:05:33;99011.75;;;8.13;70.50
19594;BME280;9944;48.240;16.478;2023-04-15T16:09:37;99027.50;;;8.16;70.68
19594;BME280;9944;48.240;16.478;2023-04-15T16:13:41;99022.25;;;8.20;70.84
19594;BME280;9944;48.240;16.478;2023-04-15T16:17:45;99031.84;;;8.21;70.98
19594;BME280;9944;48.240;16.478;2023-04-15T16:21:48;99029.28;;;8.17;70.53
19594;BME280;9944;48.240;16.478;2023-04-15T16:25:52;99035.41;;;8.18;70.93
19594;BME280;9944;48.240;16.478;2023-04-15T16:29:56;99043.28;;;8.16;70.72
19594;BME280;9944;48.240;16.478;2023-04-15T16:33:59;99045.91;;;8.15;70.99
19594;BME280;9944;48.240;16.478;2023-04-15T16:38:02;99050.31;;;8.17;71.04
19594;BME280;9944;48.240;16.478;2023-04-15T16:42:06;99060.81;;;8.17;71.23
19594;BME280;9944;48.240;16.478;2023-04-15T16:46:09;99056.44;;;8.15;71.08
19594;BME280;9944;48.240;16.478;2023-04-15T16:50:13;99066.09;;;8.11;70.56
19594;BME280;9944;48.240;16.478;2023-04-15T16:54:16;99074.91;;;8.04;70.93
19594;BME280;9944;48.240;16.478;2023-04-15T16:58:20;99074.91;;;8.01;70.86
19594;BME280;9944;48.240;16.478;2023-04-15T17:02:24;99081.09;;;7.95;70.66
19594;BME280;9944;48.240;16.478;2023-04-15T17:06:27;99083.75;;;7.88;71.09
19594;BME280;9944;48.240;16.478;2023-04-15T17:10:31;99083.75;;;7.86;71.47
19594;BME280;9944;48.240;16.478;2023-04-15T17:14:35;99090.75;;;7.86;71.30
19594;BME280;9944;48.240;16.478;2023-04-15T17:18:39;99092.53;;;7.80;71.37
19594;BME280;9944;48.240;16.478;2023-04-15T17:22:42;99093.44;;;7.75;71.34
19594;BME280;9944;48.240;16.478;2023-04-15T17:26:46;99107.47;;;7.71;71.47
19594;BME280;9944;48.240;16.478;2023-04-15T17:30:50;99109.22;;;7.66;71.41
19594;BME280;9944;48.240;16.478;2023-04-15T17:34:53;99120.63;;;7.60;71.03
19594;BME280;9944;48.240;16.478;2023-04-15T17:38:56;99125.03;;;7.50;71.14
19594;BME280;9944;48.240;16.478;2023-04-15T17:42:59;99132.03;;;7.42;71.32
19594;BME280;9944;48.240;16.478;2023-04-15T17:47:04;99139.03;;;7.38;71.69
19594;BME280;9944;48.240;16.478;2023-04-15T17:51:07;99147.81;;;7.34;71.56
19594;BME280;9944;48.240;16.478;2023-04-15T17:55:10;99147.81;;;7.33;71.80
19594;BME280;9944;48.240;16.478;2023-04-15T17:59:13;99155.69;;;7.31;71.99
19594;BME280;9944;48.240;16.478;2023-04-15T18:03:17;99173.19;;;7.26;71.55
19594;BME280;9944;48.240;16.478;2023-04-15T18:07:20;99173.22;;;7.18;72.02
19594;BME280;9944;48.240;16.478;2023-04-15T18:11:24;99181.94;;;7.14;72.00
19594;BME280;9944;48.240;16.478;2023-04-15T18:15:27;99179.31;;;7.08;72.20
19594;BME280;9944;48.240;16.478;2023-04-15T18:19:31;99200.31;;;7.05;72.28
19594;BME280;9944;48.240;16.478;2023-04-15T18:23:34;99203.78;;;7.02;72.42
19594;BME280;9944;48.240;16.478;2023-04-15T18:27:37;99207.31;;;7.00;72.70
19594;BME280;9944;48.240;16.478;2023-04-15T18:31:40;99216.03;;;7.00;72.97
19594;BME280;9944;48.240;16.478;2023-04-15T18:35:45;99215.16;;;6.98;72.78
19594;BME280;9944;48.240;16.478;2023-04-15T18:39:50;99222.16;;;6.96;72.90
19594;BME280;9944;48.240;16.478;2023-04-15T18:43:54;99229.16;;;6.94;73.15
19594;BME280;9944;48.240;16.478;2023-04-15T18:47:57;99235.28;;;6.92;72.92
19594;BME280;9944;48.240;16.478;2023-04-15T18:52:02;99241.41;;;6.89;73.39
19594;BME280;9944;48.240;16.478;2023-04-15T18:56:05;99249.25;;;6.86;73.17
19594;BME280;9944;48.240;16.478;2023-04-15T19:00:10;99251.88;;;6.83;73.28
19594;BME280;9944;48.240;16.478;2023-04-15T19:04:13;99262.38;;;6.83;73.31
19594;BME280;9944;48.240;16.478;2023-04-15T19:08:17;99256.25;;;6.81;73.41
19594;BME280;9944;48.240;16.478;2023-04-15T19:12:20;99262.38;;;6.77;73.22
19594;BME280;9944;48.240;16.478;2023-04-15T19:16:23;99257.97;;;6.68;72.98
19594;BME280;9944;48.240;16.478;2023-04-15T19:20:26;99272.75;;;6.55;72.92
19594;BME280;9944;48.240;16.478;2023-04-15T19:24:31;99258.75;;;6.44;73.12
19594;BME280;9944;48.240;16.478;2023-04-15T19:28:34;99270.03;;;6.40;73.44
19594;BME280;9944;48.240;16.478;2023-04-15T19:32:37;99264.78;;;6.35;73.54
19594;BME280;9944;48.240;16.478;2023-04-15T19:36:40;99270.00;;;6.29;73.54
19594;BME280;9944;48.240;16.478;2023-04-15T19:40:45;99276.94;;;6.22;73.41
19594;BME280;9944;48.240;16.478;2023-04-15T19:44:48;99280.41;;;6.15;73.82
19594;BME280;9944;48.240;16.478;2023-04-15T19:48:51;99283.88;;;6.11;74.16
19594;BME280;9944;48.240;16.478;2023-04-15T19:52:54;99291.72;;;6.08;74.42
19594;BME280;9944;48.240;16.478;2023-04-15T19:56:58;99302.19;;;6.05;74.62
19594;BME280;9944;48.240;16.478;2023-04-15T20:01:02;99303.94;;;6.06;75.00
19594;BME280;9944;48.240;16.478;2023-04-15T20:05:05;99314.41;;;6.03;74.77
19594;BME280;9944;48.240;16.478;2023-04-15T20:09:10;99329.22;;;6.01;74.93
19594;BME280;9944;48.240;16.478;2023-04-15T20:13:15;99330.09;;;6.00;74.97
19594;BME280;9944;48.240;16.478;2023-04-15T20:17:18;99335.31;;;6.00;75.24
19594;BME280;9944;48.240;16.478;2023-04-15T20:21:21;99342.38;;;6.04;75.38
19594;BME280;9944;48.240;16.478;2023-04-15T20:25:24;99331.88;;;6.07;75.50
19594;BME280;9944;48.240;16.478;2023-04-15T20:29:28;99337.16;;;6.10;75.64
19594;BME280;9944;48.240;16.478;2023-04-15T20:33:31;99339.75;;;6.10;75.58
19594;BME280;9944;48.240;16.478;2023-04-15T20:37:35;99350.22;;;6.08;75.58
19594;BME280;9944;48.240;16.478;2023-04-15T20:41:38;99342.34;;;6.07;75.56
19594;BME280;9944;48.240;16.478;2023-04-15T20:45:43;99354.59;;;6.06;75.70
19594;BME280;9944;48.240;16.478;2023-04-15T20:49:46;99353.72;;;6.06;75.99
19594;BME280;9944;48.240;16.478;2023-04-15T20:53:49;99356.34;;;6.06;76.01
19594;BME280;9944;48.240;16.478;2023-04-15T20:57:52;99357.25;;;6.09;76.38
19594;BME280;9944;48.240;16.478;2023-04-15T21:01:56;99358.13;;;6.13;76.01
19594;BME280;9944;48.240;16.478;2023-04-15T21:05:59;99361.63;;;6.15;76.27
19594;BME280;9944;48.240;16.478;2023-04-15T21:10:02;99366.03;;;6.18;76.42
19594;BME280;9944;48.240;16.478;2023-04-15T21:14:06;99377.41;;;6.18;76.52
19594;BME280;9944;48.240;16.478;2023-04-15T21:18:11;99370.41;;;6.20;76.69
19594;BME280;9944;48.240;16.478;2023-04-15T21:22:14;99380.03;;;6.20;76.50
19594;BME280;9944;48.240;16.478;2023-04-15T21:26:17;99373.88;;;6.19;76.80
19594;BME280;9944;48.240;16.478;2023-04-15T21:30:20;99379.13;;;6.16;76.76
19594;BME280;9944;48.240;16.478;2023-04-15T21:34:25;99380.84;;;6.14;76.71
19594;BME280;9944;48.240;16.478;2023-04-15T21:38:28;99386.94;;;6.11;76.62
19594;BME280;9944;48.240;16.478;2023-04-15T21:42:31;99390.44;;;6.09;76.63
19594;BME280;9944;48.240;16.478;2023-04-15T21:46:34;99390.41;;;6.06;76.45
19594;BME280;9944;48.240;16.478;2023-04-15T21:50:38;99393.00;;;6.04;76.74